sensor_id;sensor_type;location;lat;lon;timestamp;temperature;humidity
37528;DHT22;23372;52.050;4.810;2022-12-18T00:00:42;-2.60;99.90
37528;DHT22;23372;52.050;4.810;2022-12-18T00:03:08;-2.70;99.90
37528;DHT22;23372;52.050;4.810;2022-12-18T00:05:33;-2.70;99.90
37528;DHT22;23372;52.050;4.810;2022-12-18T00:07:59;-2.60;99.90
37528;DHT22;23372;52.050;4.810;2022-12-18T00:10:25;-2.60;99.90
37528;DHT22;23372;52.050;4.810;2022-12-18T00:12:50;-2.50;99.90
37528;DHT22;23372;52.050;4.810;2022-12-18T00:15:16;-2.70;99.90
37528;DHT22;23372;52.050;4.810;2022-12-18T00:17:41;-2.80;99.90
37528;DHT22;23372;52.050;4.810;2022-12-18T00:20:07;-2.80;99.90
37528;DHT22;23372;52.050;4.810;2022-12-18T00:22:33;-2.70;99.90
37528;DHT22;23372;52.050;4.810;2022-12-18T00:24:59;-2.60;99.90
37528;DHT22;23372;52.050;4.810;2022-12-18T00:27:24;-2.60;99.90
37528;DHT22;23372;52.050;4.810;2022-12-18T00:29:50;-2.80;99.90
37528;DHT22;23372;52.050;4.810;2022-12-18T00:32:15;-2.90;99.90
37528;DHT22;23372;52.050;4.810;2022-12-18T00:34:41;-2.90;99.90
37528;DHT22;23372;52.050;4.810;2022-12-18T00:37:06;-2.90;99.90
37528;DHT22;23372;52.050;4.810;2022-12-18T00:39:32;-2.90;99.90
37528;DHT22;23372;52.050;4.810;2022-12-18T00:41:58;-2.80;99.90
37528;DHT22;23372;52.050;4.810;2022-12-18T00:44:42;-2.80;99.90
37528;DHT22;23372;52.050;4.810;2022-12-18T00:47:08;-2.80;99.90
37528;DHT22;23372;52.050;4.810;2022-12-18T00:49:33;-2.80;99.90
37528;DHT22;23372;52.050;4.810;2022-12-18T00:51:59;-2.90;99.90
37528;DHT22;23372;52.050;4.810;2022-12-18T00:54:24;-2.80;99.90
37528;DHT22;23372;52.050;4.810;2022-12-18T00:56:50;-2.80;99.90
37528;DHT22;23372;52.050;4.810;2022-12-18T00:59:17;-2.90;99.90
37528;DHT22;23372;52.050;4.810;2022-12-18T01:01:42;-2.90;99.90
37528;DHT22;23372;52.050;4.810;2022-12-18T01:04:08;-2.90;99.90
37528;DHT22;23372;52.050;4.810;2022-12-18T01:06:34;-2.90;99.90
37528;DHT22;23372;52.050;4.810;2022-12-18T01:08:59;-2.90;99.90
37528;DHT22;23372;52.050;4.810;2022-12-18T01:11:25;-2.80;99.90
37528;DHT22;23372;52.050;4.810;2022-12-18T01:13:53;-2.80;99.90
37528;DHT22;23372;52.050;4.810;2022-12-18T01:16:18;-2.90;99.90
37528;DHT22;23372;52.050;4.810;2022-12-18T01:18:44;-3.00;99.90
37528;DHT22;23372;52.050;4.810;2022-12-18T01:21:13;-3.00;99.90
37528;DHT22;23372;52.050;4.810;2022-12-18T01:23:39;-2.90;99.90
37528;DHT22;23372;52.050;4.810;2022-12-18T01:26:15;-2.90;99.90
37528;DHT22;23372;52.050;4.810;2022-12-18T01:28:42;-2.90;99.90
37528;DHT22;23372;52.050;4.810;2022-12-18T01:31:14;-2.90;99.90
37528;DHT22;23372;52.050;4.810;2022-12-18T01:33:39;-2.90;99.90
37528;DHT22;23372;52.050;4.810;2022-12-18T01:36:05;-2.90;99.90
37528;DHT22;23372;52.050;4.810;2022-12-18T01:38:31;-2.80;99.90
37528;DHT22;23372;52.050;4.810;2022-12-18T01:40:58;-2.90;99.90
37528;DHT22;23372;52.050;4.810;2022-12-18T01:44:01;-3.00;99.90
37528;DHT22;23372;52.050;4.810;2022-12-18T01:46:27;-3.00;99.90
37528;DHT22;23372;52.050;4.810;2022-12-18T01:48:58;-3.10;99.90
37528;DHT22;23372;52.050;4.810;2022-12-18T01:51:27;-3.00;99.90
37528;DHT22;23372;52.050;4.810;2022-12-18T01:53:52;-3.00;99.90
37528;DHT22;23372;52.050;4.810;2022-12-18T01:56:20;-2.90;99.90
37528;DHT22;23372;52.050;4.810;2022-12-18T01:59:00;-3.00;99.90
37528;DHT22;23372;52.050;4.810;2022-12-18T02:01:26;-3.10;99.90
37528;DHT22;23372;52.050;4.810;2022-12-18T02:03:52;-3.10;99.90
37528;DHT22;23372;52.050;4.810;2022-12-18T02:06:39;-3.10;99.90
37528;DHT22;23372;52.050;4.810;2022-12-18T02:09:20;-3.10;99.90
37528;DHT22;23372;52.050;4.810;2022-12-18T02:14:39;-3.10;99.90
37528;DHT22;23372;52.050;4.810;2022-12-18T02:20:29;-3.20;99.90
37528;DHT22;23372;52.050;4.810;2022-12-18T02:28:26;-3.20;99.90
37528;DHT22;23372;52.050;4.810;2022-12-18T02:30:53;-3.30;99.90
37528;DHT22;23372;52.050;4.810;2022-12-18T02:33:27;-3.30;99.90
37528;DHT22;23372;52.050;4.810;2022-12-18T02:35:55;-3.30;99.90
37528;DHT22;23372;52.050;4.810;2022-12-18T02:38:23;-3.30;99.90
37528;DHT22;23372;52.050;4.810;2022-12-18T02:40:49;-3.30;99.90
37528;DHT22;23372;52.050;4.810;2022-12-18T02:43:16;-3.40;99.90
37528;DHT22;23372;52.050;4.810;2022-12-18T02:45:56;-3.40;99.90
37528;DHT22;23372;52.050;4.810;2022-12-18T02:48:28;-3.20;99.90
37528;DHT22;23372;52.050;4.810;2022-12-18T02:51:06;-3.20;99.90
37528;DHT22;23372;52.050;4.810;2022-12-18T02:53:38;-3.30;99.90
37528;DHT22;23372;52.050;4.810;2022-12-18T02:56:18;-3.40;99.90
37528;DHT22;23372;52.050;4.810;2022-12-18T02:59:02;-3.40;99.90
37528;DHT22;23372;52.050;4.810;2022-12-18T03:01:42;-3.40;99.90
37528;DHT22;23372;52.050;4.810;2022-12-18T03:04:16;-3.40;99.90
37528;DHT22;23372;52.050;4.810;2022-12-18T03:06:49;-3.60;99.90
37528;DHT22;23372;52.050;4.810;2022-12-18T03:09:22;-3.60;99.90
37528;DHT22;23372;52.050;4.810;2022-12-18T03:11:55;-3.70;99.90
37528;DHT22;23372;52.050;4.810;2022-12-18T03:14:42;-3.60;99.90
37528;DHT22;23372;52.050;4.810;2022-12-18T03:17:14;-3.60;99.90
37528;DHT22;23372;52.050;4.810;2022-12-18T03:19:42;-3.50;99.90
37528;DHT22;23372;52.050;4.810;2022-12-18T03:22:10;-3.60;99.90
37528;DHT22;23372;52.050;4.810;2022-12-18T03:24:37;-3.60;99.90
37528;DHT22;23372;52.050;4.810;2022-12-18T03:27:09;-3.50;99.90
37528;DHT22;23372;52.050;4.810;2022-12-18T03:29:37;-3.50;99.90
37528;DHT22;23372;52.050;4.810;2022-12-18T03:32:17;-3.50;99.90
37528;DHT22;23372;52.050;4.810;2022-12-18T03:34:46;-3.60;99.90
37528;DHT22;23372;52.050;4.810;2022-12-18T03:37:14;-3.70;99.90
37528;DHT22;23372;52.050;4.810;2022-12-18T03:39:40;-3.60;99.90
37528;DHT22;23372;52.050;4.810;2022-12-18T03:45:15;-3.60;99.90
37528;DHT22;23372;52.050;4.810;2022-12-18T03:47:59;-3.70;99.90
37528;DHT22;23372;52.050;4.810;2022-12-18T03:50:37;-3.60;99.90
37528;DHT22;23372;52.050;4.810;2022-12-18T03:55:34;-3.70;99.90
37528;DHT22;23372;52.050;4.810;2022-12-18T03:58:02;-3.60;99.90
37528;DHT22;23372;52.050;4.810;2022-12-18T04:00:30;-3.60;99.90
37528;DHT22;23372;52.050;4.810;2022-12-18T04:02:57;-3.70;99.90
37528;DHT22;23372;52.050;4.810;2022-12-18T04:05:27;-3.80;99.90
37528;DHT22;23372;52.050;4.810;2022-12-18T04:07:55;-3.90;99.90
37528;DHT22;23372;52.050;4.810;2022-12-18T04:10:21;-3.90;99.90
37528;DHT22;23372;52.050;4.810;2022-12-18T04:12:47;-4.00;99.90
37528;DHT22;23372;52.050;4.810;2022-12-18T04:15:13;-4.10;99.90
37528;DHT22;23372;52.050;4.810;2022-12-18T04:17:47;-4.10;99.90
37528;DHT22;23372;52.050;4.810;2022-12-18T04:20:13;-4.10;99.90
37528;DHT22;23372;52.050;4.810;2022-12-18T04:22:38;-4.20;99.90
37528;DHT22;23372;52.050;4.810;2022-12-18T04:25:04;-4.20;99.90
37528;DHT22;23372;52.050;4.810;2022-12-18T04:27:30;-4.20;99.90
37528;DHT22;23372;52.050;4.810;2022-12-18T04:29:55;-4.20;99.90
37528;DHT22;23372;52.050;4.810;2022-12-18T04:32:21;-4.10;99.90
37528;DHT22;23372;52.050;4.810;2022-12-18T04:34:46;-4.20;99.90
37528;DHT22;23372;52.050;4.810;2022-12-18T04:37:12;-4.20;99.90
37528;DHT22;23372;52.050;4.810;2022-12-18T04:39:38;-4.20;99.90
37528;DHT22;23372;52.050;4.810;2022-12-18T04:42:03;-4.30;99.90
37528;DHT22;23372;52.050;4.810;2022-12-18T04:44:29;-4.40;99.90
37528;DHT22;23372;52.050;4.810;2022-12-18T04:46:54;-4.40;99.90
37528;DHT22;23372;52.050;4.810;2022-12-18T04:49:21;-4.40;99.90
37528;DHT22;23372;52.050;4.810;2022-12-18T04:51:46;-4.40;99.90
37528;DHT22;23372;52.050;4.810;2022-12-18T04:54:12;-4.30;99.90
37528;DHT22;23372;52.050;4.810;2022-12-18T04:56:37;-4.30;99.90
37528;DHT22;23372;52.050;4.810;2022-12-18T04:59:03;-4.30;99.90
37528;DHT22;23372;52.050;4.810;2022-12-18T05:01:28;-4.30;99.90
37528;DHT22;23372;52.050;4.810;2022-12-18T05:03:54;-4.40;99.90
37528;DHT22;23372;52.050;4.810;2022-12-18T05:06:20;-4.50;99.90
37528;DHT22;23372;52.050;4.810;2022-12-18T05:08:45;-4.60;99.90
37528;DHT22;23372;52.050;4.810;2022-12-18T05:11:13;-4.50;99.90
37528;DHT22;23372;52.050;4.810;2022-12-18T05:13:42;-4.60;99.90
37528;DHT22;23372;52.050;4.810;2022-12-18T05:16:08;-4.50;99.90
37528;DHT22;23372;52.050;4.810;2022-12-18T05:18:34;-4.60;99.90
37528;DHT22;23372;52.050;4.810;2022-12-18T05:21:00;-4.60;99.90
37528;DHT22;23372;52.050;4.810;2022-12-18T05:23:26;-4.80;99.90
37528;DHT22;23372;52.050;4.810;2022-12-18T05:25:57;-4.80;99.90
37528;DHT22;23372;52.050;4.810;2022-12-18T05:28:24;-4.90;99.90
37528;DHT22;23372;52.050;4.810;2022-12-18T05:30:51;-4.90;99.90
37528;DHT22;23372;52.050;4.810;2022-12-18T05:33:17;-4.90;99.90
37528;DHT22;23372;52.050;4.810;2022-12-18T05:35:43;-5.00;99.90
37528;DHT22;23372;52.050;4.810;2022-12-18T05:38:09;-4.90;99.90
37528;DHT22;23372;52.050;4.810;2022-12-18T05:40:35;-4.90;99.90
37528;DHT22;23372;52.050;4.810;2022-12-18T05:43:04;-5.00;99.90
37528;DHT22;23372;52.050;4.810;2022-12-18T05:45:30;-5.20;99.90
37528;DHT22;23372;52.050;4.810;2022-12-18T05:47:55;-5.30;99.90
37528;DHT22;23372;52.050;4.810;2022-12-18T05:50:21;-5.40;99.90
37528;DHT22;23372;52.050;4.810;2022-12-18T05:52:46;-5.50;99.90
37528;DHT22;23372;52.050;4.810;2022-12-18T05:55:12;-5.50;99.90
37528;DHT22;23372;52.050;4.810;2022-12-18T05:57:37;-5.50;99.90
37528;DHT22;23372;52.050;4.810;2022-12-18T06:00:03;-5.50;99.90
37528;DHT22;23372;52.050;4.810;2022-12-18T06:02:29;-5.60;99.90
37528;DHT22;23372;52.050;4.810;2022-12-18T06:04:55;-5.60;99.90
37528;DHT22;23372;52.050;4.810;2022-12-18T06:07:20;-5.60;99.90
37528;DHT22;23372;52.050;4.810;2022-12-18T06:09:46;-5.60;99.90
37528;DHT22;23372;52.050;4.810;2022-12-18T06:12:11;-5.60;99.90
37528;DHT22;23372;52.050;4.810;2022-12-18T06:14:37;-5.70;99.90
37528;DHT22;23372;52.050;4.810;2022-12-18T06:17:02;-5.70;99.90
37528;DHT22;23372;52.050;4.810;2022-12-18T06:19:28;-5.70;99.90
37528;DHT22;23372;52.050;4.810;2022-12-18T06:21:53;-5.60;99.90
37528;DHT22;23372;52.050;4.810;2022-12-18T06:24:19;-5.70;99.90
37528;DHT22;23372;52.050;4.810;2022-12-18T06:26:45;-5.70;99.90
37528;DHT22;23372;52.050;4.810;2022-12-18T06:29:11;-5.70;99.90
37528;DHT22;23372;52.050;4.810;2022-12-18T06:31:36;-5.70;99.90
37528;DHT22;23372;52.050;4.810;2022-12-18T06:34:03;-5.70;99.90
37528;DHT22;23372;52.050;4.810;2022-12-18T06:36:29;-5.70;99.90
37528;DHT22;23372;52.050;4.810;2022-12-18T06:38:56;-5.80;99.90
37528;DHT22;23372;52.050;4.810;2022-12-18T06:41:22;-5.80;99.90
37528;DHT22;23372;52.050;4.810;2022-12-18T06:43:48;-5.80;99.90
37528;DHT22;23372;52.050;4.810;2022-12-18T06:46:13;-5.80;99.90
37528;DHT22;23372;52.050;4.810;2022-12-18T06:48:39;-5.80;99.90
37528;DHT22;23372;52.050;4.810;2022-12-18T06:51:05;-5.90;99.90
37528;DHT22;23372;52.050;4.810;2022-12-18T06:53:32;-6.00;99.90
37528;DHT22;23372;52.050;4.810;2022-12-18T06:56:06;-6.10;99.90
37528;DHT22;23372;52.050;4.810;2022-12-18T06:58:32;-6.10;99.90
37528;DHT22;23372;52.050;4.810;2022-12-18T07:01:02;-6.10;99.90
37528;DHT22;23372;52.050;4.810;2022-12-18T07:03:29;-6.20;99.90
37528;DHT22;23372;52.050;4.810;2022-12-18T07:05:54;-6.20;99.90
37528;DHT22;23372;52.050;4.810;2022-12-18T07:08:20;-6.20;99.90
37528;DHT22;23372;52.050;4.810;2022-12-18T07:10:46;-6.10;99.90
37528;DHT22;23372;52.050;4.810;2022-12-18T07:13:11;-6.10;99.90
37528;DHT22;23372;52.050;4.810;2022-12-18T07:15:37;-6.10;99.90
37528;DHT22;23372;52.050;4.810;2022-12-18T07:18:03;-6.00;99.90
37528;DHT22;23372;52.050;4.810;2022-12-18T07:20:28;-6.00;99.90
37528;DHT22;23372;52.050;4.810;2022-12-18T07:22:54;-6.00;99.90
37528;DHT22;23372;52.050;4.810;2022-12-18T07:25:19;-5.90;99.90
37528;DHT22;23372;52.050;4.810;2022-12-18T07:27:45;-5.80;99.90
37528;DHT22;23372;52.050;4.810;2022-12-18T07:30:11;-5.70;99.90
37528;DHT22;23372;52.050;4.810;2022-12-18T07:32:36;-5.70;99.90
37528;DHT22;23372;52.050;4.810;2022-12-18T07:35:02;-5.70;99.90
37528;DHT22;23372;52.050;4.810;2022-12-18T07:37:28;-5.60;99.90
37528;DHT22;23372;52.050;4.810;2022-12-18T07:39:53;-5.60;99.90
37528;DHT22;23372;52.050;4.810;2022-12-18T07:42:19;-5.60;99.90
37528;DHT22;23372;52.050;4.810;2022-12-18T07:44:57;-5.60;99.90
37528;DHT22;23372;52.050;4.810;2022-12-18T07:47:23;-5.50;99.90
37528;DHT22;23372;52.050;4.810;2022-12-18T07:49:49;-5.40;99.90
37528;DHT22;23372;52.050;4.810;2022-12-18T07:52:15;-5.30;99.90
37528;DHT22;23372;52.050;4.810;2022-12-18T07:54:41;-5.20;99.90
37528;DHT22;23372;52.050;4.810;2022-12-18T07:57:07;-5.20;99.90
37528;DHT22;23372;52.050;4.810;2022-12-18T07:59:33;-5.10;99.90
37528;DHT22;23372;52.050;4.810;2022-12-18T08:01:58;-5.10;99.90
37528;DHT22;23372;52.050;4.810;2022-12-18T08:04:25;-5.00;99.90
37528;DHT22;23372;52.050;4.810;2022-12-18T08:06:50;-5.00;99.90
37528;DHT22;23372;52.050;4.810;2022-12-18T08:09:16;-5.00;99.90
37528;DHT22;23372;52.050;4.810;2022-12-18T08:11:42;-4.90;99.90
37528;DHT22;23372;52.050;4.810;2022-12-18T08:14:07;-4.90;99.90
37528;DHT22;23372;52.050;4.810;2022-12-18T08:16:33;-4.90;99.90
37528;DHT22;23372;52.050;4.810;2022-12-18T08:18:59;-4.90;99.90
37528;DHT22;23372;52.050;4.810;2022-12-18T08:21:27;-4.90;99.90
37528;DHT22;23372;52.050;4.810;2022-12-18T08:23:55;-4.90;99.90
37528;DHT22;23372;52.050;4.810;2022-12-18T08:26:21;-4.90;99.90
37528;DHT22;23372;52.050;4.810;2022-12-18T08:28:48;-4.90;99.90
37528;DHT22;23372;52.050;4.810;2022-12-18T08:31:14;-4.80;99.90
37528;DHT22;23372;52.050;4.810;2022-12-18T08:33:40;-4.80;99.90
37528;DHT22;23372;52.050;4.810;2022-12-18T08:36:06;-4.80;99.90
37528;DHT22;23372;52.050;4.810;2022-12-18T08:38:34;-4.80;99.90
37528;DHT22;23372;52.050;4.810;2022-12-18T08:41:01;-4.70;99.90
37528;DHT22;23372;52.050;4.810;2022-12-18T08:43:28;-4.60;99.90
37528;DHT22;23372;52.050;4.810;2022-12-18T08:46:14;-4.60;99.90
37528;DHT22;23372;52.050;4.810;2022-12-18T08:48:40;-4.60;99.90
37528;DHT22;23372;52.050;4.810;2022-12-18T08:51:06;-4.60;99.90
37528;DHT22;23372;52.050;4.810;2022-12-18T08:53:31;-4.50;99.90
37528;DHT22;23372;52.050;4.810;2022-12-18T08:55:57;-4.50;99.90
37528;DHT22;23372;52.050;4.810;2022-12-18T08:58:23;-4.50;99.90
37528;DHT22;23372;52.050;4.810;2022-12-18T09:00:49;-4.40;99.90
37528;DHT22;23372;52.050;4.810;2022-12-18T09:03:16;-4.40;99.90
37528;DHT22;23372;52.050;4.810;2022-12-18T09:05:42;-4.40;99.90
37528;DHT22;23372;52.050;4.810;2022-12-18T09:08:08;-4.30;99.90
37528;DHT22;23372;52.050;4.810;2022-12-18T09:10:34;-4.30;99.90
37528;DHT22;23372;52.050;4.810;2022-12-18T09:12:59;-4.30;99.90
37528;DHT22;23372;52.050;4.810;2022-12-18T09:15:25;-4.20;99.90
37528;DHT22;23372;52.050;4.810;2022-12-18T09:17:51;-4.30;99.90
37528;DHT22;23372;52.050;4.810;2022-12-18T09:20:18;-4.30;99.90
37528;DHT22;23372;52.050;4.810;2022-12-18T09:22:44;-4.20;99.90
37528;DHT22;23372;52.050;4.810;2022-12-18T09:25:09;-4.10;99.90
37528;DHT22;23372;52.050;4.810;2022-12-18T09:27:35;-4.10;99.90
37528;DHT22;23372;52.050;4.810;2022-12-18T09:30:01;-4.10;99.90
37528;DHT22;23372;52.050;4.810;2022-12-18T09:32:27;-4.10;99.90
37528;DHT22;23372;52.050;4.810;2022-12-18T09:34:53;-4.00;99.90
37528;DHT22;23372;52.050;4.810;2022-12-18T09:37:18;-4.00;99.90
37528;DHT22;23372;52.050;4.810;2022-12-18T09:39:44;-4.00;99.90
37528;DHT22;23372;52.050;4.810;2022-12-18T09:42:20;-3.90;99.90
37528;DHT22;23372;52.050;4.810;2022-12-18T09:44:50;-3.80;99.90
37528;DHT22;23372;52.050;4.810;2022-12-18T09:49:46;-3.70;99.90
37528;DHT22;23372;52.050;4.810;2022-12-18T09:52:27;-3.80;99.90
37528;DHT22;23372;52.050;4.810;2022-12-18T09:55:06;-3.70;99.90
37528;DHT22;23372;52.050;4.810;2022-12-18T09:57:40;-3.70;99.90
37528;DHT22;23372;52.050;4.810;2022-12-18T10:00:21;-3.70;99.90
37528;DHT22;23372;52.050;4.810;2022-12-18T10:02:47;-3.70;99.90
37528;DHT22;23372;52.050;4.810;2022-12-18T10:05:17;-3.70;99.90
37528;DHT22;23372;52.050;4.810;2022-12-18T10:10:53;-3.60;99.90
37528;DHT22;23372;52.050;4.810;2022-12-18T10:13:40;-3.50;99.90
37528;DHT22;23372;52.050;4.810;2022-12-18T10:19:18;-3.50;99.90
37528;DHT22;23372;52.050;4.810;2022-12-18T10:24:56;-3.40;99.90
37528;DHT22;23372;52.050;4.810;2022-12-18T10:27:25;-3.40;99.90
37528;DHT22;23372;52.050;4.810;2022-12-18T10:29:52;-3.30;99.90
37528;DHT22;23372;52.050;4.810;2022-12-18T10:32:24;-3.30;99.90
37528;DHT22;23372;52.050;4.810;2022-12-18T10:34:53;-3.20;99.90
37528;DHT22;23372;52.050;4.810;2022-12-18T10:37:21;-3.20;99.90
37528;DHT22;23372;52.050;4.810;2022-12-18T10:42:34;-3.10;99.90
37528;DHT22;23372;52.050;4.810;2022-12-18T10:45:12;-3.00;99.90
37528;DHT22;23372;52.050;4.810;2022-12-18T10:47:43;-3.00;99.90
37528;DHT22;23372;52.050;4.810;2022-12-18T10:50:39;-3.00;99.90
37528;DHT22;23372;52.050;4.810;2022-12-18T10:53:05;-3.00;99.90
37528;DHT22;23372;52.050;4.810;2022-12-18T10:55:44;-2.80;99.90
37528;DHT22;23372;52.050;4.810;2022-12-18T10:58:28;-2.70;99.90
37528;DHT22;23372;52.050;4.810;2022-12-18T11:01:10;-2.70;99.90
37528;DHT22;23372;52.050;4.810;2022-12-18T11:04:15;-2.70;99.90
37528;DHT22;23372;52.050;4.810;2022-12-18T11:06:33;-2.60;99.90
37528;DHT22;23372;52.050;4.810;2022-12-18T11:09:05;-2.50;99.90
37528;DHT22;23372;52.050;4.810;2022-12-18T11:11:32;-2.60;99.90
37528;DHT22;23372;52.050;4.810;2022-12-18T11:14:02;-2.60;99.90
37528;DHT22;23372;52.050;4.810;2022-12-18T11:16:30;-2.60;99.90
37528;DHT22;23372;52.050;4.810;2022-12-18T11:21:49;-2.50;99.90
37528;DHT22;23372;52.050;4.810;2022-12-18T11:24:34;-2.40;99.90
37528;DHT22;23372;52.050;4.810;2022-12-18T11:27:04;-2.50;99.90
37528;DHT22;23372;52.050;4.810;2022-12-18T11:29:37;-2.40;99.90
37528;DHT22;23372;52.050;4.810;2022-12-18T11:34:46;-2.40;99.90
37528;DHT22;23372;52.050;4.810;2022-12-18T11:37:15;-2.40;99.90
37528;DHT22;23372;52.050;4.810;2022-12-18T11:40:01;-2.30;99.90
37528;DHT22;23372;52.050;4.810;2022-12-18T11:42:39;-2.30;99.90
37528;DHT22;23372;52.050;4.810;2022-12-18T11:48:14;-2.20;99.90
37528;DHT22;23372;52.050;4.810;2022-12-18T11:50:49;-2.20;99.90
37528;DHT22;23372;52.050;4.810;2022-12-18T11:53:16;-2.10;99.90
37528;DHT22;23372;52.050;4.810;2022-12-18T11:56:26;-2.10;99.90
37528;DHT22;23372;52.050;4.810;2022-12-18T12:01:52;-2.00;99.90
37528;DHT22;23372;52.050;4.810;2022-12-18T12:07:31;-2.00;99.90
37528;DHT22;23372;52.050;4.810;2022-12-18T12:13:28;-1.90;99.90
37528;DHT22;23372;52.050;4.810;2022-12-18T12:16:16;-1.90;99.90
37528;DHT22;23372;52.050;4.810;2022-12-18T12:21:39;-1.80;99.90
37528;DHT22;23372;52.050;4.810;2022-12-18T12:24:34;-1.80;99.90
37528;DHT22;23372;52.050;4.810;2022-12-18T12:30:07;-1.70;99.90
37528;DHT22;23372;52.050;4.810;2022-12-18T12:32:49;-1.70;99.90
37528;DHT22;23372;52.050;4.810;2022-12-18T12:35:44;-1.70;99.90
37528;DHT22;23372;52.050;4.810;2022-12-18T12:38:41;-1.70;99.90
37528;DHT22;23372;52.050;4.810;2022-12-18T12:41:13;-1.70;99.90
37528;DHT22;23372;52.050;4.810;2022-12-18T12:44:02;-1.60;99.90
37528;DHT22;23372;52.050;4.810;2022-12-18T12:46:32;-1.60;99.90
37528;DHT22;23372;52.050;4.810;2022-12-18T12:49:02;-1.60;99.90
37528;DHT22;23372;52.050;4.810;2022-12-18T12:51:35;-1.50;99.90
37528;DHT22;23372;52.050;4.810;2022-12-18T12:54:05;-1.50;99.90
37528;DHT22;23372;52.050;4.810;2022-12-18T13:02:22;-1.50;99.90
37528;DHT22;23372;52.050;4.810;2022-12-18T13:07:31;-1.50;99.90
37528;DHT22;23372;52.050;4.810;2022-12-18T13:12:57;-1.50;99.90
37528;DHT22;23372;52.050;4.810;2022-12-18T13:15:42;-1.50;99.90
37528;DHT22;23372;52.050;4.810;2022-12-18T13:25:49;-1.40;99.90
37528;DHT22;23372;52.050;4.810;2022-12-18T13:28:16;-1.40;99.90
37528;DHT22;23372;52.050;4.810;2022-12-18T13:41:21;-1.40;99.90
37528;DHT22;23372;52.050;4.810;2022-12-18T13:43:52;-1.30;99.90
37528;DHT22;23372;52.050;4.810;2022-12-18T13:46:30;-1.30;99.90
37528;DHT22;23372;52.050;4.810;2022-12-18T13:51:44;-1.30;99.90
37528;DHT22;23372;52.050;4.810;2022-12-18T13:56:46;-1.30;99.90
37528;DHT22;23372;52.050;4.810;2022-12-18T14:01:48;-1.30;99.90
37528;DHT22;23372;52.050;4.810;2022-12-18T14:04:27;-1.20;99.90
37528;DHT22;23372;52.050;4.810;2022-12-18T14:07:03;-1.20;99.90
37528;DHT22;23372;52.050;4.810;2022-12-18T14:09:36;-1.20;99.90
37528;DHT22;23372;52.050;4.810;2022-12-18T14:12:03;-1.20;99.90
37528;DHT22;23372;52.050;4.810;2022-12-18T14:15:06;-1.20;99.90
37528;DHT22;23372;52.050;4.810;2022-12-18T14:17:36;-1.10;99.90
37528;DHT22;23372;52.050;4.810;2022-12-18T14:20:02;-1.10;99.90
37528;DHT22;23372;52.050;4.810;2022-12-18T14:22:29;-1.10;99.90
37528;DHT22;23372;52.050;4.810;2022-12-18T14:27:50;-1.10;99.90
37528;DHT22;23372;52.050;4.810;2022-12-18T14:33:08;-1.10;99.90
37528;DHT22;23372;52.050;4.810;2022-12-18T14:35:36;-1.10;99.90
37528;DHT22;23372;52.050;4.810;2022-12-18T14:38:23;-1.10;99.90
37528;DHT22;23372;52.050;4.810;2022-12-18T14:43:39;-1.00;99.90
37528;DHT22;23372;52.050;4.810;2022-12-18T14:46:24;-1.10;99.90
37528;DHT22;23372;52.050;4.810;2022-12-18T14:48:51;-1.00;99.90
37528;DHT22;23372;52.050;4.810;2022-12-18T14:51:31;-1.00;99.90
37528;DHT22;23372;52.050;4.810;2022-12-18T14:53:58;-1.00;99.90
37528;DHT22;23372;52.050;4.810;2022-12-18T14:56:35;-1.00;99.90
37528;DHT22;23372;52.050;4.810;2022-12-18T15:01:35;-1.00;99.90
37528;DHT22;23372;52.050;4.810;2022-12-18T15:04:03;-1.00;99.90
37528;DHT22;23372;52.050;4.810;2022-12-18T15:06:35;-1.00;99.90
37528;DHT22;23372;52.050;4.810;2022-12-18T15:09:04;-1.00;99.90
37528;DHT22;23372;52.050;4.810;2022-12-18T15:14:42;-1.00;99.90
37528;DHT22;23372;52.050;4.810;2022-12-18T15:17:22;-1.00;99.90
37528;DHT22;23372;52.050;4.810;2022-12-18T15:19:49;-1.00;99.90
37528;DHT22;23372;52.050;4.810;2022-12-18T15:22:28;-1.00;99.90
37528;DHT22;23372;52.050;4.810;2022-12-18T15:24:56;-0.90;99.90
37528;DHT22;23372;52.050;4.810;2022-12-18T15:27:33;-1.00;99.90
37528;DHT22;23372;52.050;4.810;2022-12-18T15:32:33;-0.90;99.90
37528;DHT22;23372;52.050;4.810;2022-12-18T15:37:44;-0.90;99.90
37528;DHT22;23372;52.050;4.810;2022-12-18T15:40:14;-0.90;99.90
37528;DHT22;23372;52.050;4.810;2022-12-18T15:42:40;-0.80;99.90
37528;DHT22;23372;52.050;4.810;2022-12-18T15:45:25;-0.80;99.90
37528;DHT22;23372;52.050;4.810;2022-12-18T15:47:50;-0.90;99.90
37528;DHT22;23372;52.050;4.810;2022-12-18T15:50:16;-0.80;99.90
37528;DHT22;23372;52.050;4.810;2022-12-18T15:52:44;-0.80;99.90
37528;DHT22;23372;52.050;4.810;2022-12-18T15:55:22;-0.80;99.90
37528;DHT22;23372;52.050;4.810;2022-12-18T15:58:07;-0.80;99.90
37528;DHT22;23372;52.050;4.810;2022-12-18T16:00:35;-0.80;99.90
37528;DHT22;23372;52.050;4.810;2022-12-18T16:03:02;-0.80;99.90
37528;DHT22;23372;52.050;4.810;2022-12-18T16:05:28;-0.80;99.90
37528;DHT22;23372;52.050;4.810;2022-12-18T16:07:53;-0.80;99.90
37528;DHT22;23372;52.050;4.810;2022-12-18T16:10:20;-0.80;99.90
37528;DHT22;23372;52.050;4.810;2022-12-18T16:12:45;-0.70;99.90
37528;DHT22;23372;52.050;4.810;2022-12-18T16:15:15;-0.70;99.90
37528;DHT22;23372;52.050;4.810;2022-12-18T16:17:42;-0.70;99.90
37528;DHT22;23372;52.050;4.810;2022-12-18T16:20:16;-0.80;99.90
37528;DHT22;23372;52.050;4.810;2022-12-18T16:22:43;-0.70;99.90
37528;DHT22;23372;52.050;4.810;2022-12-18T16:25:32;-0.70;99.90
37528;DHT22;23372;52.050;4.810;2022-12-18T16:27:58;-0.80;99.90
37528;DHT22;23372;52.050;4.810;2022-12-18T16:30:26;-0.80;99.90
37528;DHT22;23372;52.050;4.810;2022-12-18T16:32:53;-0.80;99.90
37528;DHT22;23372;52.050;4.810;2022-12-18T16:35:20;-0.70;99.90
37528;DHT22;23372;52.050;4.810;2022-12-18T16:37:45;-0.70;99.90
37528;DHT22;23372;52.050;4.810;2022-12-18T16:40:14;-0.70;99.90
37528;DHT22;23372;52.050;4.810;2022-12-18T16:42:41;-0.70;99.90
37528;DHT22;23372;52.050;4.810;2022-12-18T16:45:09;-0.70;99.90
37528;DHT22;23372;52.050;4.810;2022-12-18T16:47:34;-0.70;99.90
37528;DHT22;23372;52.050;4.810;2022-12-18T16:50:00;-0.70;99.90
37528;DHT22;23372;52.050;4.810;2022-12-18T16:52:27;-0.60;99.90
37528;DHT22;23372;52.050;4.810;2022-12-18T16:54:52;-0.70;99.90
37528;DHT22;23372;52.050;4.810;2022-12-18T16:57:19;-0.60;99.90
37528;DHT22;23372;52.050;4.810;2022-12-18T16:59:45;-0.60;99.90
37528;DHT22;23372;52.050;4.810;2022-12-18T17:04:41;-0.60;99.90
37528;DHT22;23372;52.050;4.810;2022-12-18T17:07:08;-0.60;99.90
37528;DHT22;23372;52.050;4.810;2022-12-18T17:09:33;-0.60;99.90
37528;DHT22;23372;52.050;4.810;2022-12-18T17:11:59;-0.60;99.90
37528;DHT22;23372;52.050;4.810;2022-12-18T17:14:25;-0.60;99.90
37528;DHT22;23372;52.050;4.810;2022-12-18T17:16:52;-0.50;99.90
37528;DHT22;23372;52.050;4.810;2022-12-18T17:19:18;-0.50;99.90
37528;DHT22;23372;52.050;4.810;2022-12-18T17:21:47;-0.50;99.90
37528;DHT22;23372;52.050;4.810;2022-12-18T17:24:12;-0.50;99.90
37528;DHT22;23372;52.050;4.810;2022-12-18T17:26:38;-0.50;99.90
37528;DHT22;23372;52.050;4.810;2022-12-18T17:29:04;-0.50;99.90
37528;DHT22;23372;52.050;4.810;2022-12-18T17:31:30;-0.50;99.90
37528;DHT22;23372;52.050;4.810;2022-12-18T17:33:57;-0.50;99.90
37528;DHT22;23372;52.050;4.810;2022-12-18T17:36:23;-0.40;99.90
37528;DHT22;23372;52.050;4.810;2022-12-18T17:38:57;-0.40;99.90